CLT TRACON Summary / KCLT TAF
CLT TRACON Summary:
Expect the line of thunderstorms south of CLT to make a push to the east over the next 2 hours. Models are uncertain about chances of convection later this afternoon. There will be likely showers over the mountains, but if any do form over the foothills, CLT could have additional thunderstorms between 21-00z. IFR ceilings will improve to MVFR/low-VFR with bases ranging from 025-040. Surface winds will be south at 10-12kts and gust with any covection. Flight hazards in the TRACON airspace outside convection: None expected.

Updated: 5/01/2016 12:40 PM
CLT Terminal Aerodrome Forecast:

FTUS80 KCLT 012100 AAA
KCLT 012059Z 0121/0218 23003KT P6SM SCT035
      TEMPO 0123/0201 21010KT 3SM -TSRA OVC020CB
     FM020100 19007KT P6SM SCT080 SCT250
     FM020900 20006KT 6SM BR FEW007 SCT013
     FM021400 21008KT P6SM FEW040 SCT250
CLT TRACON Area Remark:
SCATTERED TS EXPECTED SE/S/SW UNTIL 19Z; POSSIBLE SW/W/NW/N FROM 21-00Z.
Convective Gate Forecast / Icing Gate Forecast / Vertical Wind Profile (click on image to enlarge)
Convective Gate Forecast
Icing Gate Forecast
SIGMETS/ Southeast Radar & Satellite Loops (click on image to enlarge)

Southeast Radar Loop

 



USA.gov is the U.S. government's official web portal to all federal, state and local government web resources and services.